sensor_id;sensor_type;location;lat;lon;timestamp;P1;durP1;ratioP1;P2;durP2;ratioP2
82773;SDS011;72508;45.118;20.728;2024-02-26T00:01:45;10.63;;;6.30;;
82773;SDS011;72508;45.118;20.728;2024-02-26T00:11:48;12.10;;;7.72;;
82773;SDS011;72508;45.118;20.728;2024-02-26T00:21:50;15.65;;;10.05;;
82773;SDS011;72508;45.118;20.728;2024-02-26T00:31:52;10.30;;;6.57;;
82773;SDS011;72508;45.118;20.728;2024-02-26T00:41:53;12.15;;;8.07;;
82773;SDS011;72508;45.118;20.728;2024-02-26T00:51:55;10.52;;;7.78;;
82773;SDS011;72508;45.118;20.728;2024-02-26T01:01:56;15.75;;;9.85;;
82773;SDS011;72508;45.118;20.728;2024-02-26T01:12:00;11.38;;;7.57;;
82773;SDS011;72508;45.118;20.728;2024-02-26T01:22:03;14.57;;;7.50;;
82773;SDS011;72508;45.118;20.728;2024-02-26T01:32:05;10.48;;;6.55;;
82773;SDS011;72508;45.118;20.728;2024-02-26T01:42:07;13.40;;;7.90;;
82773;SDS011;72508;45.118;20.728;2024-02-26T01:52:09;12.90;;;8.55;;
82773;SDS011;72508;45.118;20.728;2024-02-26T02:02:12;13.18;;;6.82;;
82773;SDS011;72508;45.118;20.728;2024-02-26T02:12:15;14.30;;;8.35;;
82773;SDS011;72508;45.118;20.728;2024-02-26T02:22:16;13.48;;;8.20;;
82773;SDS011;72508;45.118;20.728;2024-02-26T02:32:19;16.45;;;8.35;;
82773;SDS011;72508;45.118;20.728;2024-02-26T02:42:22;16.95;;;9.73;;
82773;SDS011;72508;45.118;20.728;2024-02-26T02:52:24;18.45;;;9.55;;
82773;SDS011;72508;45.118;20.728;2024-02-26T03:02:26;16.92;;;8.57;;
82773;SDS011;72508;45.118;20.728;2024-02-26T03:12:29;20.45;;;10.55;;
82773;SDS011;72508;45.118;20.728;2024-02-26T03:22:31;21.27;;;12.65;;
82773;SDS011;72508;45.118;20.728;2024-02-26T03:32:33;18.45;;;10.05;;
82773;SDS011;72508;45.118;20.728;2024-02-26T03:42:35;18.23;;;10.93;;
82773;SDS011;72508;45.118;20.728;2024-02-26T03:52:36;18.05;;;10.60;;
82773;SDS011;72508;45.118;20.728;2024-02-26T04:02:38;20.63;;;10.25;;
82773;SDS011;72508;45.118;20.728;2024-02-26T04:12:40;18.17;;;9.77;;
82773;SDS011;72508;45.118;20.728;2024-02-26T04:22:42;18.02;;;9.70;;
82773;SDS011;72508;45.118;20.728;2024-02-26T04:32:44;14.38;;;8.23;;
82773;SDS011;72508;45.118;20.728;2024-02-26T04:42:46;14.80;;;7.18;;
82773;SDS011;72508;45.118;20.728;2024-02-26T04:52:51;16.30;;;7.32;;
82773;SDS011;72508;45.118;20.728;2024-02-26T05:02:52;15.80;;;7.53;;
82773;SDS011;72508;45.118;20.728;2024-02-26T05:12:54;15.68;;;8.05;;
82773;SDS011;72508;45.118;20.728;2024-02-26T05:22:56;16.45;;;7.88;;
82773;SDS011;72508;45.118;20.728;2024-02-26T05:32:59;23.80;;;10.48;;
82773;SDS011;72508;45.118;20.728;2024-02-26T05:43:01;17.25;;;10.27;;
82773;SDS011;72508;45.118;20.728;2024-02-26T05:53:03;19.17;;;8.57;;
82773;SDS011;72508;45.118;20.728;2024-02-26T06:03:05;18.55;;;9.43;;
82773;SDS011;72508;45.118;20.728;2024-02-26T06:13:07;18.45;;;9.50;;
82773;SDS011;72508;45.118;20.728;2024-02-26T06:23:08;15.57;;;7.82;;
82773;SDS011;72508;45.118;20.728;2024-02-26T06:33:11;16.17;;;7.95;;
82773;SDS011;72508;45.118;20.728;2024-02-26T06:43:12;23.15;;;9.73;;
82773;SDS011;72508;45.118;20.728;2024-02-26T06:53:16;16.70;;;8.60;;
82773;SDS011;72508;45.118;20.728;2024-02-26T07:03:18;15.90;;;8.05;;
82773;SDS011;72508;45.118;20.728;2024-02-26T07:24:07;17.25;;;8.55;;
82773;SDS011;72508;45.118;20.728;2024-02-26T07:34:08;17.17;;;9.48;;
82773;SDS011;72508;45.118;20.728;2024-02-26T07:44:11;17.40;;;8.45;;
82773;SDS011;72508;45.118;20.728;2024-02-26T07:54:12;20.25;;;9.23;;
82773;SDS011;72508;45.118;20.728;2024-02-26T08:04:14;16.88;;;8.13;;
82773;SDS011;72508;45.118;20.728;2024-02-26T08:14:18;16.33;;;8.35;;
82773;SDS011;72508;45.118;20.728;2024-02-26T08:24:22;19.63;;;10.18;;
82773;SDS011;72508;45.118;20.728;2024-02-26T08:34:24;15.98;;;7.50;;
82773;SDS011;72508;45.118;20.728;2024-02-26T08:44:33;13.52;;;7.55;;
82773;SDS011;72508;45.118;20.728;2024-02-26T08:54:35;15.55;;;6.68;;
82773;SDS011;72508;45.118;20.728;2024-02-26T09:04:42;10.82;;;5.75;;
82773;SDS011;72508;45.118;20.728;2024-02-26T09:15:04;13.32;;;6.03;;
82773;SDS011;72508;45.118;20.728;2024-02-26T09:25:07;9.95;;;4.05;;
82773;SDS011;72508;45.118;20.728;2024-02-26T09:46:10;8.85;;;4.35;;
82773;SDS011;72508;45.118;20.728;2024-02-26T09:56:12;8.40;;;4.70;;
82773;SDS011;72508;45.118;20.728;2024-02-26T10:06:34;8.68;;;4.90;;
82773;SDS011;72508;45.118;20.728;2024-02-26T10:17:04;10.60;;;4.75;;
82773;SDS011;72508;45.118;20.728;2024-02-26T10:27:09;9.07;;;5.00;;
82773;SDS011;72508;45.118;20.728;2024-02-26T10:37:31;8.95;;;5.35;;
82773;SDS011;72508;45.118;20.728;2024-02-26T10:47:35;7.25;;;4.45;;
82773;SDS011;72508;45.118;20.728;2024-02-26T10:57:39;10.68;;;6.88;;
82773;SDS011;72508;45.118;20.728;2024-02-26T11:07:43;9.57;;;4.72;;
82773;SDS011;72508;45.118;20.728;2024-02-26T11:17:46;7.03;;;3.50;;
82773;SDS011;72508;45.118;20.728;2024-02-26T11:27:50;8.98;;;4.68;;
82773;SDS011;72508;45.118;20.728;2024-02-26T11:38:23;5.63;;;3.55;;
82773;SDS011;72508;45.118;20.728;2024-02-26T11:48:31;5.40;;;3.47;;
82773;SDS011;72508;45.118;20.728;2024-02-26T11:58:33;7.25;;;3.65;;
82773;SDS011;72508;45.118;20.728;2024-02-26T12:08:41;5.13;;;2.50;;
82773;SDS011;72508;45.118;20.728;2024-02-26T12:18:45;6.80;;;3.17;;
82773;SDS011;72508;45.118;20.728;2024-02-26T12:28:48;5.22;;;3.33;;
82773;SDS011;72508;45.118;20.728;2024-02-26T12:38:50;5.45;;;2.38;;
82773;SDS011;72508;45.118;20.728;2024-02-26T12:48:54;6.22;;;2.72;;
82773;SDS011;72508;45.118;20.728;2024-02-26T12:59:00;6.20;;;3.92;;
82773;SDS011;72508;45.118;20.728;2024-02-26T13:09:03;6.68;;;3.47;;
82773;SDS011;72508;45.118;20.728;2024-02-26T13:19:09;8.85;;;4.75;;
82773;SDS011;72508;45.118;20.728;2024-02-26T13:29:18;7.25;;;3.72;;
82773;SDS011;72508;45.118;20.728;2024-02-26T13:39:23;5.97;;;3.85;;
82773;SDS011;72508;45.118;20.728;2024-02-26T13:49:26;7.63;;;3.47;;
82773;SDS011;72508;45.118;20.728;2024-02-26T13:59:27;8.40;;;7.28;;
82773;SDS011;72508;45.118;20.728;2024-02-26T14:09:29;15.52;;;5.63;;
82773;SDS011;72508;45.118;20.728;2024-02-26T14:19:31;13.07;;;6.88;;
82773;SDS011;72508;45.118;20.728;2024-02-26T14:29:33;10.70;;;5.40;;
82773;SDS011;72508;45.118;20.728;2024-02-26T14:39:37;10.55;;;6.40;;
82773;SDS011;72508;45.118;20.728;2024-02-26T14:51:01;9.90;;;5.85;;
82773;SDS011;72508;45.118;20.728;2024-02-26T15:00:12;7.22;;;5.35;;
82773;SDS011;72508;45.118;20.728;2024-02-26T15:10:14;7.68;;;5.03;;
82773;SDS011;72508;45.118;20.728;2024-02-26T15:20:16;11.38;;;6.07;;
82773;SDS011;72508;45.118;20.728;2024-02-26T15:30:18;12.52;;;6.25;;
82773;SDS011;72508;45.118;20.728;2024-02-26T15:40:20;7.95;;;4.90;;
82773;SDS011;72508;45.118;20.728;2024-02-26T15:50:23;11.43;;;5.75;;
82773;SDS011;72508;45.118;20.728;2024-02-26T16:00:24;12.02;;;7.28;;
82773;SDS011;72508;45.118;20.728;2024-02-26T16:10:26;15.82;;;6.25;;
82773;SDS011;72508;45.118;20.728;2024-02-26T16:20:29;8.13;;;5.80;;
82773;SDS011;72508;45.118;20.728;2024-02-26T16:30:31;14.88;;;8.00;;
82773;SDS011;72508;45.118;20.728;2024-02-26T16:40:33;10.35;;;6.60;;
82773;SDS011;72508;45.118;20.728;2024-02-26T16:50:36;10.05;;;5.05;;
82773;SDS011;72508;45.118;20.728;2024-02-26T17:00:37;11.10;;;6.45;;
82773;SDS011;72508;45.118;20.728;2024-02-26T17:10:39;14.35;;;8.50;;
82773;SDS011;72508;45.118;20.728;2024-02-26T17:20:41;17.45;;;8.65;;
82773;SDS011;72508;45.118;20.728;2024-02-26T17:30:46;11.73;;;7.13;;
82773;SDS011;72508;45.118;20.728;2024-02-26T17:40:48;12.35;;;6.53;;
82773;SDS011;72508;45.118;20.728;2024-02-26T17:50:50;12.15;;;6.90;;
82773;SDS011;72508;45.118;20.728;2024-02-26T18:00:52;14.52;;;6.95;;
82773;SDS011;72508;45.118;20.728;2024-02-26T18:10:54;11.93;;;6.97;;
82773;SDS011;72508;45.118;20.728;2024-02-26T18:20:55;17.15;;;8.45;;
82773;SDS011;72508;45.118;20.728;2024-02-26T18:30:57;17.10;;;10.05;;
82773;SDS011;72508;45.118;20.728;2024-02-26T18:41:00;16.45;;;11.43;;
82773;SDS011;72508;45.118;20.728;2024-02-26T18:51:02;14.50;;;8.73;;
82773;SDS011;72508;45.118;20.728;2024-02-26T19:01:10;15.90;;;11.38;;
82773;SDS011;72508;45.118;20.728;2024-02-26T19:11:15;12.85;;;8.55;;
82773;SDS011;72508;45.118;20.728;2024-02-26T19:21:17;14.25;;;7.93;;
82773;SDS011;72508;45.118;20.728;2024-02-26T19:31:19;16.73;;;9.10;;
82773;SDS011;72508;45.118;20.728;2024-02-26T19:41:20;16.65;;;12.55;;
82773;SDS011;72508;45.118;20.728;2024-02-26T19:51:22;14.98;;;7.22;;
82773;SDS011;72508;45.118;20.728;2024-02-26T20:01:24;17.35;;;8.52;;
82773;SDS011;72508;45.118;20.728;2024-02-26T20:11:25;20.20;;;9.57;;
82773;SDS011;72508;45.118;20.728;2024-02-26T20:21:27;14.05;;;8.40;;
82773;SDS011;72508;45.118;20.728;2024-02-26T20:31:29;14.75;;;7.25;;
82773;SDS011;72508;45.118;20.728;2024-02-26T20:41:30;11.77;;;6.45;;
82773;SDS011;72508;45.118;20.728;2024-02-26T20:51:32;11.98;;;6.38;;
82773;SDS011;72508;45.118;20.728;2024-02-26T21:01:34;21.85;;;12.30;;
82773;SDS011;72508;45.118;20.728;2024-02-26T21:11:35;17.45;;;7.85;;
82773;SDS011;72508;45.118;20.728;2024-02-26T21:21:37;15.60;;;8.90;;
82773;SDS011;72508;45.118;20.728;2024-02-26T21:31:39;16.30;;;7.40;;
82773;SDS011;72508;45.118;20.728;2024-02-26T21:41:42;13.40;;;7.22;;
82773;SDS011;72508;45.118;20.728;2024-02-26T21:51:44;15.93;;;8.73;;
82773;SDS011;72508;45.118;20.728;2024-02-26T22:01:48;17.05;;;8.52;;
82773;SDS011;72508;45.118;20.728;2024-02-26T22:11:50;15.65;;;8.95;;
82773;SDS011;72508;45.118;20.728;2024-02-26T22:21:53;14.77;;;8.40;;
82773;SDS011;72508;45.118;20.728;2024-02-26T22:31:55;18.27;;;9.98;;
82773;SDS011;72508;45.118;20.728;2024-02-26T22:41:58;18.38;;;9.40;;
82773;SDS011;72508;45.118;20.728;2024-02-26T22:52:01;17.75;;;10.30;;
82773;SDS011;72508;45.118;20.728;2024-02-26T23:02:03;39.13;;;24.92;;
82773;SDS011;72508;45.118;20.728;2024-02-26T23:12:04;37.88;;;24.75;;
82773;SDS011;72508;45.118;20.728;2024-02-26T23:22:06;32.08;;;21.55;;
82773;SDS011;72508;45.118;20.728;2024-02-26T23:32:08;29.27;;;15.10;;
82773;SDS011;72508;45.118;20.728;2024-02-26T23:42:09;25.92;;;16.98;;
82773;SDS011;72508;45.118;20.728;2024-02-26T23:52:11;23.25;;;13.75;;
